Aérodrome :
LOGIN :

S'inscrire | Disclaimer

   EN    FR    IT 

 










Légende :    VFR   VFR Marginal   IFR   IFR Intensif   IFR Très Intensif
Visi : 
Plafond : 
>= 8 km
>= 3000ft
5 à 8 km
1000 à 3000 ft
1500m à 5 km
500 à 1000 ft
800 à 1500m
200 à 500 ft
< 800m
< 200 ft
Symboles :   Orages  Brouillard  Fortes neiges  Fortes précipitations  Vent > 20 kt
SIGMETs :   Divers  Orages  Givrage  Turbulence  Onde Orograph.  Cendres Volcan.







- Altitude de l'aérodrome : 170 ft
- Code IATA : KRP


EKKA - Karup

DERNIER METAR :
  • 211150Z AUTO 25013KT 9999NDV FEW013/// BKN054/// 13/09 Q1027 BECMG SCT012 BKN030

METARs EXPIRÉS :
  • 211120Z AUTO 24014KT 9999NDV BKN012/// 12/09 Q1027 BECMG SCT012 BKN030
  • 211102Z 25013KT 9999 BKN012 BKN030 12/09 Q1027 BECMG SCT012 BKN030
  • 211050Z AUTO 25013KT 9999NDV R09R/P2000N R27L/1800D BKN011/// BKN033/// 12/09 Q1027 BECMG SCT012 BKN020
  • 211020Z AUTO 25012KT 9999NDV BKN009/// 11/09 Q1027 BECMG SCT009 BKN012
  • 210950Z AUTO 24014KT 9999NDV BKN009/// 11/09 Q1027 TEMPO 5000 BR SCT009 BKN012
  • 210920Z AUTO 25013KT 9999NDV BKN008/// 11/08 Q1026 TEMPO 4000 BR

TAF TAF EKKA
Valide du 21 à 12h jusqu'au 22 à 12h UTC


211123Z 2112/2212 23010KT 8000 SCT005 BKN030
TEMPO 2112/2118 BKN012
TEMPO 2118/2122 2500 BR BKN004
BECMG 2122/2124 0300 FG VV001
TEMPO 2200/2212 2500 BR SCT003
Pas de NOTAMs connus pour ce terrain.



MET'MAP, la Météo Aéronautique d'un coup d'oeil ! - Copyright ORBIFLY Décembre 2007 - Disclaimer

ORBIFLY MET'MAP TEAM :

Programmation & Développement : Alexandra Zaïnal
Conception & Développement : Baudouin d'Aumeries
Co-Programmation & Développement : Marc-Olivier Méhu
Soutien technique & logistique : Manuel Goepfert

Contact : metmap@orbifly.com




SOURCES & CREDITS :

   NOAA